Terminal Aerodrome Forecast
Issued by NWS

Home | Current Version | Previous Version | Text Only | Print | Product List | Glossary On
Versions: 1 2 3 4 5 6 7 8 9 10 11 12 13 14 15
000
FTUS46 KPDT 042320
TAFDLS
TAF
KDLS 042320Z 0500/0524 31020G27KT P6SM SKC
     FM050800 30011G16KT P6SM FEW150 FEW250
     FM051400 31014G20KT P6SM SKC
     FM051900 32020G27KT P6SM SCT250=

USA.gov is the U.S. government's official web portal to all federal, state and local government web resources and services.